createdAt,value
2023-05-05T00:01:13.812Z,33.35
2023-05-05T00:03:42.789Z,26.42
2023-05-05T00:06:30.052Z,28.95
2023-05-05T00:09:10.713Z,26.60
2023-05-05T00:11:37.546Z,28.98
2023-05-05T00:14:25.045Z,28.70
2023-05-05T00:17:26.035Z,29.55
2023-05-05T00:20:07.869Z,28.95
2023-05-05T00:22:55.060Z,29.45
2023-05-05T00:25:35.723Z,30.17
2023-05-05T00:28:02.630Z,30.35
2023-05-05T00:30:29.871Z,31.55
2023-05-05T00:32:57.423Z,32.40
2023-05-05T00:35:24.546Z,31.77
2023-05-05T00:37:51.502Z,32.88
2023-05-05T00:40:38.047Z,35.83
2023-05-05T00:43:18.731Z,35.45
2023-05-05T00:45:47.892Z,41.72
2023-05-05T00:48:17.146Z,33.13
2023-05-05T00:50:45.158Z,32.75
2023-05-05T00:53:12.577Z,35.67
2023-05-05T00:55:40.547Z,37.38
2023-05-05T00:58:08.038Z,33.95
2023-05-05T01:00:35.188Z,34.42
2023-05-05T01:03:02.273Z,33.90
2023-05-05T01:06:27.103Z,34.30
2023-05-05T01:09:10.698Z,37.97
2023-05-05T01:11:56.509Z,37.05
2023-05-05T01:14:32.135Z,33.33
2023-05-05T01:17:00.168Z,33.78
2023-05-05T01:19:52.497Z,44.38
2023-05-05T01:22:55.098Z,39.22
2023-05-05T01:26:26.100Z,34.63
2023-05-05T01:29:32.735Z,31.38
2023-05-05T01:32:14.979Z,32.70
2023-05-05T01:35:02.188Z,33.03
2023-05-05T01:37:55.111Z,34.28
2023-05-05T01:40:43.755Z,48.90
2023-05-05T01:43:13.612Z,33.33
2023-05-05T01:45:43.271Z,32.92
2023-05-05T01:48:12.670Z,37.53
2023-05-05T01:50:44.119Z,32.72
2023-05-05T01:53:12.942Z,35.88
2023-05-05T01:55:41.019Z,35.35
2023-05-05T01:58:09.860Z,38.92
2023-05-05T02:00:38.690Z,39.45
2023-05-05T02:03:07.983Z,37.17
2023-05-05T02:05:57.126Z,39.88
2023-05-05T02:08:39.494Z,36.85
2023-05-05T02:11:09.453Z,42.28
2023-05-05T02:13:40.824Z,45.67
2023-05-05T02:16:14.126Z,38.08
2023-05-05T02:18:43.132Z,38.45
2023-05-05T02:21:30.147Z,39.90
2023-05-05T02:24:12.796Z,40.45
2023-05-05T02:26:40.711Z,44.95
2023-05-05T02:29:16.628Z,39.25
2023-05-05T02:31:55.566Z,38.47
2023-05-05T02:34:51.128Z,47.27
2023-05-05T02:37:54.168Z,40.60
2023-05-05T02:40:39.317Z,44.83
2023-05-05T02:43:09.952Z,41.40
2023-05-05T02:45:37.143Z,43.40
2023-05-05T02:48:04.657Z,43.72
2023-05-05T02:50:35.303Z,44.88
2023-05-05T02:53:13.804Z,43.28
2023-05-05T02:55:52.035Z,46.03
2023-05-05T02:58:37.238Z,46.03
2023-05-05T03:01:11.933Z,46.53
2023-05-05T03:03:44.870Z,47.92
2023-05-05T03:06:36.166Z,43.92
2023-05-05T03:09:26.471Z,43.25
2023-05-05T03:12:11.158Z,43.65
2023-05-05T03:14:51.946Z,44.58
2023-05-05T03:17:21.706Z,44.20
2023-05-05T03:19:50.377Z,46.63
2023-05-05T03:22:37.215Z,49.85
2023-05-05T03:25:19.725Z,42.97
2023-05-05T03:27:47.774Z,45.08
2023-05-05T03:30:20.299Z,43.70
2023-05-05T03:32:50.836Z,47.50
2023-05-05T03:35:17.997Z,44.88
2023-05-05T03:37:45.128Z,42.63
2023-05-05T03:40:14.813Z,49.72
2023-05-05T03:42:41.965Z,46.35
2023-05-05T03:45:09.298Z,49.72
2023-05-05T03:47:37.532Z,51.25
2023-05-05T03:50:06.887Z,47.55
2023-05-05T03:52:34.034Z,49.95
2023-05-05T03:55:01.505Z,50.13
2023-05-05T03:57:49.193Z,47.15
2023-05-05T04:01:02.360Z,44.42
2023-05-05T04:04:03.242Z,45.50
2023-05-05T04:07:04.228Z,49.22
2023-05-05T04:09:45.502Z,47.30
2023-05-05T04:12:13.665Z,55.38
2023-05-05T04:14:40.973Z,50.55
2023-05-05T04:17:09.207Z,48.60
2023-05-05T04:19:36.411Z,52.95
2023-05-05T04:22:24.201Z,48.28
2023-05-05T04:25:05.097Z,45.05
2023-05-05T04:27:32.840Z,47.35
2023-05-05T04:30:00.824Z,58.60
2023-05-05T04:32:28.091Z,47.33
2023-05-05T04:34:56.004Z,51.38
2023-05-05T04:37:23.514Z,48.22
2023-05-05T04:39:50.673Z,47.97
2023-05-05T04:42:18.447Z,50.53
2023-05-05T04:44:45.361Z,47.75
2023-05-05T04:47:14.591Z,43.28
2023-05-05T04:49:42.436Z,45.78
2023-05-05T04:52:09.354Z,48.97
2023-05-05T04:54:57.213Z,39.95
2023-05-05T04:57:37.900Z,48.53
2023-05-05T05:00:05.683Z,40.70
2023-05-05T05:02:33.153Z,40.17
2023-05-05T05:05:00.192Z,44.25
2023-05-05T05:07:47.310Z,43.67
2023-05-05T05:10:49.297Z,41.40
2023-05-05T05:13:51.319Z,38.65
2023-05-05T05:16:52.348Z,44.33
2023-05-05T05:19:32.960Z,39.05
2023-05-05T05:22:20.286Z,40.15
2023-05-05T05:25:00.824Z,41.70
2023-05-05T05:27:28.490Z,43.88
2023-05-05T05:29:56.148Z,36.47
2023-05-05T05:32:44.305Z,37.85
2023-05-05T05:35:45.305Z,35.03
2023-05-05T05:38:26.904Z,36.05
2023-05-05T05:40:57.178Z,45.10
2023-05-05T05:43:25.038Z,39.28
2023-05-05T05:45:52.066Z,36.92
2023-05-05T05:48:21.508Z,38.85
2023-05-05T05:50:48.510Z,38.92
2023-05-05T05:53:15.458Z,37.50
2023-05-05T05:55:42.524Z,41.53
2023-05-05T05:58:09.589Z,36.47
2023-05-05T06:00:36.634Z,33.60
2023-05-05T06:03:08.176Z,37.90
2023-05-05T06:06:01.276Z,36.13
2023-05-05T06:09:02.282Z,37.88
2023-05-05T06:11:48.755Z,34.67
2023-05-05T06:14:18.016Z,35.80
2023-05-05T06:16:45.395Z,33.55
2023-05-05T06:19:16.528Z,33.92
2023-05-05T06:22:04.388Z,33.85
2023-05-05T06:24:45.667Z,35.42
2023-05-05T06:27:12.691Z,43.83
2023-05-05T06:29:39.639Z,39.50
2023-05-05T06:32:08.469Z,40.53
2023-05-05T06:34:55.298Z,40.72
2023-05-05T06:37:35.989Z,39.00
2023-05-05T06:40:23.308Z,36.08
2023-05-05T06:43:24.339Z,33.22
2023-05-05T06:46:27.294Z,32.45
2023-05-05T06:49:07.827Z,33.03
2023-05-05T06:51:55.293Z,38.97
2023-05-05T06:54:35.948Z,43.80
2023-05-05T06:57:23.342Z,43.05
2023-05-05T07:00:06.125Z,32.28
2023-05-05T07:02:33.889Z,39.13
2023-05-05T07:05:01.378Z,39.50
2023-05-05T07:07:55.321Z,38.65
2023-05-05T07:10:35.852Z,35.65
2023-05-05T07:13:16.424Z,35.15
2023-05-05T07:16:17.356Z,34.38
2023-05-05T07:18:58.285Z,36.20
2023-05-05T07:21:47.331Z,36.58
2023-05-05T07:24:27.983Z,39.95
2023-05-05T07:26:54.981Z,32.15
2023-05-05T07:29:21.890Z,29.88
2023-05-05T07:32:09.368Z,71.20
2023-05-05T07:35:10.380Z,29.60
2023-05-05T07:37:51.467Z,32.10
2023-05-05T07:40:38.320Z,38.38
2023-05-05T07:43:39.600Z,28.73
2023-05-05T07:46:40.343Z,29.23
2023-05-05T07:49:29.188Z,34.70
2023-05-05T07:52:16.385Z,33.30
2023-05-05T07:54:56.861Z,32.08
2023-05-05T07:57:23.815Z,28.85
2023-05-05T07:59:50.874Z,25.05
2023-05-05T08:02:17.999Z,36.05
2023-05-05T08:04:44.980Z,36.00
2023-05-05T08:07:11.927Z,33.13
2023-05-05T08:09:38.916Z,30.25
2023-05-05T08:12:06.003Z,27.40
2023-05-05T08:14:33.143Z,38.83
2023-05-05T08:17:00.054Z,25.67
2023-05-05T08:19:29.519Z,26.90
2023-05-05T08:22:17.384Z,34.22
2023-05-05T08:25:18.345Z,23.77
2023-05-05T08:27:58.910Z,30.15
2023-05-05T08:30:28.186Z,25.55
2023-05-05T08:33:15.411Z,21.50
2023-05-05T08:35:57.019Z,26.55
2023-05-05T08:38:24.007Z,21.48
2023-05-05T08:40:51.601Z,21.65
2023-05-05T08:43:38.451Z,23.65
2023-05-05T08:46:18.970Z,13.93
2023-05-05T08:48:48.901Z,9.05
2023-05-05T08:51:40.419Z,16.30
2023-05-05T08:54:27.279Z,15.98
2023-05-05T08:56:59.956Z,14.05
2023-05-05T08:59:30.234Z,10.63
2023-05-05T09:02:01.734Z,11.85
2023-05-05T09:04:28.873Z,12.45
2023-05-05T09:06:58.601Z,12.63
2023-05-05T09:09:27.286Z,11.88
2023-05-05T09:11:56.032Z,12.45
2023-05-05T09:14:22.945Z,7.85
2023-05-05T09:16:49.815Z,10.65
2023-05-05T09:19:16.778Z,24.83
2023-05-05T09:22:03.552Z,7.85
2023-05-05T09:24:55.315Z,22.42
2023-05-05T09:27:23.547Z,12.23
2023-05-05T09:29:50.943Z,11.45
2023-05-05T09:32:18.505Z,7.18
2023-05-05T09:35:15.401Z,6.55
2023-05-05T09:38:25.443Z,9.73
2023-05-05T09:41:37.751Z,7.95
2023-05-05T09:44:59.930Z,9.05
2023-05-05T09:48:01.532Z,12.75
2023-05-05T09:50:45.238Z,9.35
2023-05-05T09:53:12.319Z,8.05
2023-05-05T09:55:39.294Z,8.73
2023-05-05T09:58:19.630Z,7.90
2023-05-05T10:00:47.546Z,8.77
2023-05-05T10:03:14.506Z,6.97
2023-05-05T10:06:11.425Z,6.80
2023-05-05T10:09:01.800Z,9.27
2023-05-05T10:11:28.730Z,7.50
2023-05-05T10:13:56.342Z,11.02
2023-05-05T10:16:24.677Z,7.25
2023-05-05T10:18:52.187Z,9.23
2023-05-05T10:21:41.418Z,6.00
2023-05-05T10:24:34.466Z,6.20
2023-05-05T10:27:05.469Z,10.63
2023-05-05T10:29:46.136Z,8.32
2023-05-05T10:35:39.832Z,14.65
2023-05-05T10:38:09.849Z,9.93
2023-05-05T10:40:36.859Z,11.77
2023-05-05T10:43:17.565Z,12.77
2023-05-05T10:46:11.517Z,9.63
2023-05-05T10:49:13.346Z,8.55
2023-05-05T10:52:24.457Z,15.68
2023-05-05T10:55:55.441Z,10.77
2023-05-05T10:58:47.048Z,21.00
2023-05-05T11:01:34.309Z,16.95
2023-05-05T11:04:22.221Z,14.25
2023-05-05T11:07:14.647Z,12.60
2023-05-05T11:10:04.323Z,12.82
2023-05-05T11:12:33.053Z,15.73
2023-05-05T11:15:28.213Z,13.30
2023-05-05T11:18:15.499Z,10.82
2023-05-05T11:21:23.562Z,10.18
2023-05-05T11:24:31.295Z,19.15
2023-05-05T11:26:58.137Z,12.40
2023-05-05T11:29:25.424Z,13.07
2023-05-05T11:32:12.546Z,9.82
2023-05-05T11:35:03.479Z,11.55
2023-05-05T11:40:24.133Z,13.82
2023-05-05T11:43:20.549Z,14.90
2023-05-05T11:46:30.482Z,14.82
2023-05-05T11:48:57.407Z,17.92
2023-05-05T11:51:24.648Z,11.65
2023-05-05T11:54:11.483Z,12.77
2023-05-05T11:57:15.530Z,19.08
2023-05-05T11:59:58.430Z,19.83
2023-05-05T12:02:27.867Z,15.27
2023-05-05T12:04:56.352Z,17.13
2023-05-05T12:07:26.162Z,11.32
2023-05-05T12:09:53.623Z,12.70
2023-05-05T12:12:33.124Z,9.40
2023-05-05T12:15:00.518Z,11.68
2023-05-05T12:17:54.602Z,14.38
2023-05-05T12:20:55.703Z,12.30
2023-05-05T12:23:45.000Z,10.82
2023-05-05T12:26:29.556Z,21.52
2023-05-05T12:29:01.165Z,9.98
2023-05-05T12:31:39.378Z,11.95
2023-05-05T12:34:26.595Z,11.82
2023-05-05T12:37:28.554Z,12.82
2023-05-05T12:41:02.576Z,11.68
2023-05-05T12:43:43.214Z,13.00
2023-05-05T12:46:30.971Z,16.02
2023-05-05T12:49:31.557Z,11.30
2023-05-05T12:52:32.582Z,13.05
2023-05-05T12:55:33.611Z,12.63
2023-05-05T12:58:38.576Z,13.57
2023-05-05T13:01:20.046Z,11.88
2023-05-05T13:03:47.163Z,12.77
2023-05-05T13:06:21.806Z,11.75
2023-05-05T13:08:49.415Z,24.90
2023-05-05T13:11:16.710Z,11.25
2023-05-05T13:13:43.931Z,12.30
2023-05-05T13:16:11.046Z,11.70
2023-05-05T13:18:46.288Z,12.93
2023-05-05T13:21:35.873Z,16.80
2023-05-05T13:24:25.927Z,12.50
2023-05-05T13:26:58.970Z,9.45
2023-05-05T13:29:31.387Z,12.77
2023-05-05T13:31:58.833Z,15.18
2023-05-05T13:34:45.617Z,11.82
2023-05-05T13:37:39.553Z,12.45
2023-05-05T13:40:40.718Z,9.27
2023-05-05T13:43:41.574Z,20.25
2023-05-05T13:46:22.333Z,11.25
2023-05-05T13:49:09.592Z,14.25
2023-05-05T13:52:03.730Z,20.75
2023-05-05T13:54:57.585Z,10.23
2023-05-05T13:57:38.371Z,13.73
2023-05-05T14:00:25.633Z,19.85
2023-05-05T14:03:26.613Z,11.15
2023-05-05T14:06:09.193Z,14.98
2023-05-05T14:08:36.536Z,14.70
2023-05-05T14:11:03.812Z,10.77
2023-05-05T14:13:31.201Z,15.38
2023-05-05T14:15:58.531Z,9.85
2023-05-05T14:18:25.974Z,9.90
2023-05-05T14:21:12.622Z,9.77
2023-05-05T14:23:53.215Z,9.88
2023-05-05T14:26:20.113Z,9.68
2023-05-05T14:28:49.596Z,12.63
2023-05-05T14:31:17.818Z,11.38
2023-05-05T14:34:04.614Z,16.90
2023-05-05T14:36:45.330Z,15.00
2023-05-05T14:39:12.279Z,10.85
2023-05-05T14:41:39.215Z,9.45
2023-05-05T14:44:06.154Z,14.85
2023-05-05T14:46:53.712Z,9.68
2023-05-05T14:49:54.655Z,9.23
2023-05-05T14:52:42.059Z,11.32
2023-05-05T14:58:30.657Z,14.48
2023-05-05T15:01:34.736Z,11.40
2023-05-05T15:04:35.646Z,11.73
2023-05-05T15:07:30.304Z,11.30
2023-05-05T15:10:18.681Z,10.15
2023-05-05T15:13:01.199Z,13.88
2023-05-05T15:15:28.233Z,11.00
2023-05-05T15:17:55.273Z,13.35
2023-05-05T15:20:42.654Z,11.40
2023-05-05T15:23:27.942Z,13.07
2023-05-05T15:25:54.889Z,14.10
2023-05-05T15:28:21.798Z,16.48
2023-05-05T15:30:48.721Z,12.68
2023-05-05T15:33:16.573Z,12.82
2023-05-05T15:35:43.650Z,13.45
2023-05-05T15:38:10.731Z,13.23
2023-05-05T15:40:37.628Z,13.68
2023-05-05T15:43:24.652Z,12.85
2023-05-05T15:46:05.230Z,13.73
2023-05-05T15:48:32.060Z,12.50
2023-05-05T15:50:59.083Z,13.25
2023-05-05T15:53:26.880Z,12.43
2023-05-05T15:56:13.714Z,16.30
2023-05-05T15:59:14.733Z,12.18
2023-05-05T16:02:15.748Z,14.65
2023-05-05T16:05:16.989Z,10.75
2023-05-05T16:08:10.989Z,17.58
2023-05-05T16:11:04.702Z,12.85
2023-05-05T16:13:45.678Z,12.75
2023-05-05T16:16:12.588Z,11.85
2023-05-05T16:18:59.691Z,19.05
2023-05-05T16:22:00.674Z,11.95
2023-05-05T16:24:43.660Z,14.32
2023-05-05T16:27:11.360Z,25.13
2023-05-05T16:29:38.605Z,12.52
2023-05-05T16:32:18.691Z,19.00
2023-05-05T16:34:59.272Z,17.63
2023-05-05T16:37:26.168Z,13.40
2023-05-05T16:39:53.025Z,12.68
2023-05-05T16:42:20.332Z,14.90
2023-05-05T16:44:47.228Z,16.65
2023-05-05T16:47:14.212Z,15.25
2023-05-05T16:49:41.198Z,14.65
2023-05-05T16:52:08.216Z,18.00
2023-05-05T16:54:35.073Z,15.63
2023-05-05T16:57:03.836Z,17.45
2023-05-05T16:59:50.714Z,17.23
2023-05-05T17:02:51.811Z,15.85
2023-05-05T17:05:52.811Z,15.57
2023-05-05T17:08:46.862Z,19.63
2023-05-05T17:11:27.329Z,22.05
2023-05-05T17:13:54.337Z,17.20
2023-05-05T17:16:21.318Z,16.50
2023-05-05T17:19:08.736Z,12.95
2023-05-05T17:22:09.781Z,21.02
2023-05-05T17:25:03.881Z,15.07
2023-05-05T17:27:50.792Z,13.25
2023-05-05T17:30:42.523Z,15.68
2023-05-05T17:33:09.574Z,13.43
2023-05-05T17:35:38.934Z,14.88
2023-05-05T17:38:06.051Z,18.65
2023-05-05T17:40:33.221Z,21.27
2023-05-05T17:43:00.384Z,19.38
2023-05-05T17:45:28.622Z,25.02
2023-05-05T17:47:55.982Z,22.35
2023-05-05T17:50:23.104Z,17.80
2023-05-05T17:52:50.049Z,17.30
2023-05-05T17:55:29.791Z,18.73
2023-05-05T17:58:25.367Z,16.08
2023-05-05T18:00:52.289Z,18.52
2023-05-05T18:03:19.616Z,27.08
2023-05-05T18:06:06.748Z,21.60
2023-05-05T18:09:09.170Z,22.42
2023-05-05T18:11:54.277Z,36.22
2023-05-05T18:14:22.681Z,25.55
2023-05-05T18:16:52.909Z,22.27
2023-05-05T18:19:39.862Z,19.90
2023-05-05T18:22:33.878Z,21.52
2023-05-05T18:25:14.505Z,23.98
2023-05-05T18:28:01.816Z,18.25
2023-05-05T18:30:43.278Z,19.77
2023-05-05T18:33:30.863Z,19.20
2023-05-05T18:36:11.435Z,24.38
2023-05-05T18:38:58.980Z,21.42
2023-05-05T18:41:39.817Z,19.25
2023-05-05T18:44:07.040Z,17.17
2023-05-05T18:46:34.091Z,18.20
2023-05-05T18:49:01.068Z,10.57
2023-05-05T18:51:28.800Z,12.45
2023-05-05T18:53:55.896Z,22.58
2023-05-05T18:56:42.805Z,17.13
2023-05-05T18:59:24.003Z,19.13
2023-05-05T19:01:51.448Z,15.20
2023-05-05T19:04:30.132Z,13.50
2023-05-05T19:07:31.382Z,13.90
2023-05-05T19:10:35.816Z,14.93
2023-05-05T19:16:17.807Z,15.75
2023-05-05T19:18:44.915Z,19.48
2023-05-05T19:21:31.855Z,21.38
2023-05-05T19:24:32.812Z,20.27
2023-05-05T19:27:33.830Z,19.40
2023-05-05T19:30:14.509Z,21.23
2023-05-05T19:33:01.836Z,20.75
2023-05-05T19:36:02.858Z,19.75
2023-05-05T19:38:44.587Z,16.80
2023-05-05T19:41:12.106Z,15.95
2023-05-05T19:43:59.802Z,16.25
2023-05-05T19:46:40.637Z,15.45
2023-05-05T19:49:07.825Z,16.23
2023-05-05T19:51:37.556Z,14.18
2023-05-05T19:54:05.019Z,19.67
2023-05-05T19:56:32.116Z,15.10
2023-05-05T19:59:18.896Z,15.40
2023-05-05T20:01:59.569Z,17.38
2023-05-05T20:04:26.621Z,15.50
2023-05-05T20:07:13.849Z,14.23
2023-05-05T20:10:14.871Z,13.82
2023-05-05T20:12:55.460Z,18.83
2023-05-05T20:15:22.654Z,20.35
2023-05-05T20:17:50.022Z,16.17
2023-05-05T20:20:36.920Z,21.48
2023-05-05T20:23:37.882Z,15.20
2023-05-05T20:26:18.615Z,20.20
2023-05-05T20:28:46.065Z,17.48
2023-05-05T20:31:32.918Z,25.08
2023-05-05T20:34:33.880Z,16.48
2023-05-05T20:37:35.067Z,19.67
2023-05-05T20:40:35.854Z,16.00
2023-05-05T20:43:24.654Z,17.85
2023-05-05T20:45:51.775Z,24.65
2023-05-05T20:48:18.973Z,20.88
2023-05-05T20:50:45.969Z,19.58
2023-05-05T20:53:15.771Z,23.65
2023-05-05T20:56:02.909Z,20.17
2023-05-05T20:58:43.599Z,22.17
2023-05-05T21:01:11.452Z,20.13
2023-05-05T21:03:38.472Z,24.90
2023-05-05T21:06:25.965Z,19.40
2023-05-05T21:09:27.894Z,26.55
2023-05-05T21:12:08.471Z,27.15
2023-05-05T21:14:35.953Z,29.15
2023-05-05T21:17:02.945Z,20.52
2023-05-05T21:19:49.881Z,20.98
2023-05-05T21:22:50.900Z,23.15
2023-05-05T21:25:31.456Z,30.40
2023-05-05T21:28:18.889Z,25.40
2023-05-05T21:31:19.609Z,46.17
2023-05-05T21:34:06.894Z,34.63
2023-05-05T21:37:07.908Z,26.42
2023-05-05T21:40:09.152Z,31.45
2023-05-05T21:43:09.954Z,29.30
2023-05-05T21:45:41.051Z,31.77
2023-05-05T21:48:08.024Z,32.17
2023-05-05T21:50:36.654Z,32.92
2023-05-05T21:53:03.556Z,35.55
2023-05-05T21:55:30.625Z,31.20
2023-05-05T21:57:57.534Z,37.25
2023-05-05T22:00:24.798Z,36.30
2023-05-05T22:02:51.868Z,30.65
2023-05-05T22:05:38.948Z,26.23
2023-05-05T22:08:19.814Z,32.78
2023-05-05T22:10:47.662Z,25.23
2023-05-05T22:13:14.755Z,35.67
2023-05-05T22:15:46.673Z,43.75
2023-05-05T22:18:15.438Z,28.77
2023-05-05T22:21:02.972Z,43.88
2023-05-05T22:23:43.573Z,31.08
2023-05-05T22:26:10.692Z,28.55
2023-05-05T22:28:38.617Z,33.05
2023-05-05T22:31:25.963Z,29.67
2023-05-05T22:34:27.940Z,31.45
2023-05-05T22:37:09.792Z,32.90
2023-05-05T22:39:49.937Z,28.67
2023-05-05T22:42:51.008Z,29.02
2023-05-05T22:45:31.495Z,37.88
2023-05-05T22:47:58.519Z,34.47
2023-05-05T22:50:25.790Z,36.25
2023-05-05T22:52:52.696Z,37.85
2023-05-05T22:55:39.967Z,36.03
2023-05-05T22:58:21.147Z,31.75
2023-05-05T23:00:48.104Z,34.78
2023-05-05T23:03:15.526Z,33.65
2023-05-05T23:06:03.006Z,31.30
2023-05-05T23:09:03.977Z,31.85
2023-05-05T23:12:04.991Z,32.85
2023-05-05T23:14:45.828Z,32.70
2023-05-05T23:17:32.980Z,37.03
2023-05-05T23:20:33.965Z,40.33
2023-05-05T23:23:26.684Z,39.55
2023-05-05T23:25:53.577Z,39.88
2023-05-05T23:28:20.574Z,47.45
2023-05-05T23:30:47.705Z,46.83
2023-05-05T23:33:14.807Z,41.05
2023-05-05T23:35:43.526Z,59.97
2023-05-05T23:38:10.602Z,42.60
2023-05-05T23:40:37.605Z,41.63
2023-05-05T23:43:04.553Z,38.88
2023-05-05T23:45:31.537Z,38.58
2023-05-05T23:47:58.515Z,40.25
2023-05-05T23:50:26.025Z,39.33
2023-05-05T23:52:52.928Z,40.30
2023-05-05T23:55:20.290Z,45.13
2023-05-05T23:57:47.298Z,41.58
